Time;durP1;ratioP1;P1;durP2;ratioP2;P2;SDS_P1;SDS_P2;PMS_P1;PMS_P2;Temp;Humidity;BMP_temperature;BMP_pressure;BME280_temperature;BME280_humidity;BME280_pressure;Samples;Min_cycle;Max_cycle;Signal;HPM_P1;HPM_P2
2021/11/11 00:00:29;;;;;;;33.07;20.17;;;;;;;5.23;68.53;97213.81;5090575;28;20486;-68
2021/11/11 00:02:55;;;;;;;39.33;19.63;;;;;;;5.15;68.95;97216.19;5091088;28;20419;-70
2021/11/11 00:05:22;;;;;;;38.70;20.40;;;;;;;5.56;68.28;97226.91;5085033;28;20451;-67
2021/11/11 00:07:48;;;;;;;36.87;20.80;;;;;;;5.78;67.80;97220.84;5081908;28;20497;-66
2021/11/11 00:10:15;;;;;;;47.87;23.90;;;;;;;5.76;67.48;97220.16;5091202;28;20491;-66
2021/11/11 00:12:40;;;;;;;39.47;20.80;;;;;;;5.83;67.36;97216.09;5092340;28;20965;-67
2021/11/11 00:15:08;;;;;;;35.00;20.90;;;;;;;5.74;67.63;97212.44;5085988;28;20427;-67
2021/11/11 00:17:34;;;;;;;33.17;20.20;;;;;;;5.95;67.48;97215.13;5078938;28;20209;-66
2021/11/11 00:19:59;;;;;;;39.60;21.50;;;;;;;6.13;66.57;97212.03;5079687;28;20862;-66
2021/11/11 00:22:26;;;;;;;32.07;19.73;;;;;;;6.21;66.46;97214.81;5085741;28;20233;-66
2021/11/11 00:24:52;;;;;;;37.67;21.03;;;;;;;6.26;66.02;97206.63;5091022;28;20181;-69
2021/11/11 00:27:17;;;;;;;34.53;19.80;;;;;;;5.94;66.48;97203.06;5067614;28;20492;-67
2021/11/11 00:29:44;;;;;;;48.53;20.50;;;;;;;6.02;66.62;97193.84;5091846;28;20274;-67
2021/11/11 00:32:10;;;;;;;32.40;19.73;;;;;;;5.84;66.63;97189.13;5091700;28;20239;-68
2021/11/11 00:34:36;;;;;;;36.17;20.17;;;;;;;5.45;67.63;97180.94;5091904;28;20434;-66
2021/11/11 00:37:02;;;;;;;29.90;19.30;;;;;;;5.56;67.62;97182.72;5087800;28;20772;-66
2021/11/11 00:39:28;;;;;;;38.20;19.43;;;;;;;5.83;66.91;97184.88;5085300;28;20326;-68
2021/11/11 00:41:53;;;;;;;33.57;18.33;;;;;;;5.99;66.50;97198.34;5092303;28;20964;-67
2021/11/11 00:44:19;;;;;;;33.20;20.17;;;;;;;6.05;66.35;97204.84;5092124;28;20178;-66
2021/11/11 00:46:44;;;;;;;31.07;18.97;;;;;;;6.15;65.92;97204.94;5092089;28;20234;-67
2021/11/11 00:49:10;;;;;;;36.10;20.30;;;;;;;5.80;66.18;97200.72;5088022;28;20194;-67
2021/11/11 00:51:37;;;;;;;35.50;20.70;;;;;;;5.58;67.70;97210.25;5092171;28;20593;-67
2021/11/11 00:54:04;;;;;;;32.97;19.60;;;;;;;5.62;67.24;97209.06;5089854;28;20656;-66
2021/11/11 00:56:29;;;;;;;31.67;19.83;;;;;;;5.27;67.92;97204.84;5089817;28;20503;-67
2021/11/11 00:58:56;;;;;;;40.73;19.97;;;;;;;5.21;68.23;97200.13;5095658;28;20463;-67
2021/11/11 01:01:22;;;;;;;30.90;18.87;;;;;;;5.48;67.51;97201.50;5087593;28;20202;-66
2021/11/11 01:03:49;;;;;;;32.67;20.07;;;;;;;5.75;66.78;97193.28;5096756;28;20558;-67
2021/11/11 01:06:17;;;;;;;34.07;19.53;;;;;;;5.88;66.41;97205.31;5078861;28;20417;-66
2021/11/11 01:08:43;;;;;;;32.70;20.27;;;;;;;5.91;65.84;97211.13;5093531;28;20423;-68
2021/11/11 01:11:08;;;;;;;35.07;20.17;;;;;;;5.83;66.24;97209.13;5084754;28;20446;-68
2021/11/11 01:13:35;;;;;;;30.47;20.47;;;;;;;5.33;67.80;97201.75;5093985;28;20934;-66
2021/11/11 01:16:02;;;;;;;29.67;18.80;;;;;;;5.47;67.82;97199.84;5077959;28;20186;-68
2021/11/11 01:18:27;;;;;;;28.37;19.37;;;;;;;5.66;66.75;97199.22;5090697;28;20424;-68
2021/11/11 01:20:53;;;;;;;33.90;19.73;;;;;;;5.76;66.84;97199.34;5104428;28;20557;-68
2021/11/11 01:23:19;;;;;;;29.50;18.60;;;;;;;5.84;66.68;97196.94;5078262;28;20189;-67
2021/11/11 01:25:44;;;;;;;34.77;19.53;;;;;;;5.67;66.74;97191.31;5093240;28;20208;-67
2021/11/11 01:28:11;;;;;;;28.90;18.67;;;;;;;5.79;66.26;97199.91;5104046;28;20239;-69
2021/11/11 01:30:39;;;;;;;31.80;19.30;;;;;;;5.80;66.39;97190.31;5099044;28;20296;-67
2021/11/11 01:33:05;;;;;;;33.77;18.57;;;;;;;5.77;65.69;97183.59;5101446;28;20415;-68
2021/11/11 01:35:31;;;;;;;37.63;18.63;;;;;;;5.44;66.13;97184.50;5098818;28;20500;-71
2021/11/11 01:37:57;;;;;;;31.93;18.70;;;;;;;5.37;66.83;97189.34;5094327;28;20192;-68
2021/11/11 01:40:23;;;;;;;33.37;19.73;;;;;;;5.07;67.80;97196.00;5085682;28;20437;-68
2021/11/11 01:42:54;;;;;;;33.50;18.77;;;;;;;5.13;67.45;97197.28;5087471;28;20204;-73
2021/11/11 01:45:29;;;;;;;35.17;21.00;;;;;;;5.13;67.71;97200.69;5078130;28;20188;-68
2021/11/11 01:47:56;;;;;;;40.27;18.83;;;;;;;5.22;67.99;97200.00;5073002;28;20434;-68
2021/11/11 01:50:23;;;;;;;35.20;19.77;;;;;;;5.45;67.67;97200.00;5088697;28;20445;-71
2021/11/11 01:52:48;;;;;;;34.33;20.00;;;;;;;5.42;67.16;97191.63;5092045;28;20419;-73
2021/11/11 01:55:15;;;;;;;32.23;20.03;;;;;;;5.47;67.43;97194.66;5078309;28;20945;-67
2021/11/11 01:57:41;;;;;;;28.80;18.60;;;;;;;5.55;67.10;97187.06;5095435;28;20432;-67
2021/11/11 02:00:18;;;;;;;33.77;19.30;;;;;;;5.65;66.63;97188.03;5099237;28;20934;-67
2021/11/11 02:02:44;;;;;;;32.33;18.83;;;;;;;5.34;66.77;97187.81;5095418;28;20537;-69
2021/11/11 02:05:10;;;;;;;32.37;19.47;;;;;;;5.30;68.06;97178.59;5078608;28;20408;-69
2021/11/11 02:07:35;;;;;;;33.90;19.13;;;;;;;5.48;67.38;97178.94;5093574;28;20884;-68
2021/11/11 02:10:02;;;;;;;30.40;18.80;;;;;;;5.42;67.44;97179.44;5092521;28;20522;-67
2021/11/11 02:12:29;;;;;;;32.87;20.10;;;;;;;4.99;68.19;97164.56;5088727;28;20274;-66
2021/11/11 02:14:55;;;;;;;30.33;19.73;;;;;;;5.24;67.68;97155.72;5094829;28;20420;-68
2021/11/11 02:17:28;;;;;;;33.73;21.10;;;;;;;5.28;67.44;97153.69;5086211;28;20953;-67
2021/11/11 02:20:09;;;;;;;27.10;19.00;;;;;;;5.43;67.16;97160.28;5092893;28;20205;-67
2021/11/11 02:22:35;;;;;;;31.67;19.10;;;;;;;5.45;66.69;97157.56;5087545;28;20910;-69
2021/11/11 02:25:01;;;;;;;35.40;21.63;;;;;;;5.39;67.20;97161.47;5092983;28;20496;-69
2021/11/11 02:27:26;;;;;;;33.83;21.43;;;;;;;5.23;67.20;97160.06;5094112;28;20426;-68
2021/11/11 02:29:52;;;;;;;32.33;20.47;;;;;;;5.29;67.76;97161.38;5094348;28;20946;-67
2021/11/11 02:32:19;;;;;;;32.93;20.30;;;;;;;5.31;67.69;97174.25;5094363;28;20181;-69
2021/11/11 02:34:44;;;;;;;37.00;19.60;;;;;;;5.28;67.90;97175.31;5094680;28;20808;-68
2021/11/11 02:37:10;;;;;;;34.30;20.07;;;;;;;5.51;66.80;97167.47;5093871;28;20431;-69
2021/11/11 02:39:38;;;;;;;33.97;18.37;;;;;;;5.50;67.54;97171.03;5094567;28;20664;-67
2021/11/11 02:42:04;;;;;;;39.13;19.40;;;;;;;5.52;66.92;97161.34;5094379;28;20206;-67
2021/11/11 02:44:33;;;;;;;27.10;17.97;;;;;;;5.59;67.03;97167.69;5093632;28;20430;-68
2021/11/11 02:46:58;;;;;;;38.80;19.53;;;;;;;5.56;66.59;97161.91;5093345;28;20428;-66
2021/11/11 02:49:33;;;;;;;29.70;18.80;;;;;;;5.42;66.24;97166.44;5091942;28;20490;-69
2021/11/11 02:52:00;;;;;;;28.53;17.87;;;;;;;5.08;67.05;97166.47;5093799;28;20227;-68
2021/11/11 02:54:26;;;;;;;31.33;19.50;;;;;;;5.13;67.76;97169.53;5094257;28;20431;-68
2021/11/11 02:56:52;;;;;;;29.53;18.83;;;;;;;5.35;67.54;97166.09;5077632;28;20436;-67
2021/11/11 02:59:17;;;;;;;27.77;17.20;;;;;;;5.50;66.58;97163.22;5093135;28;20447;-66
2021/11/11 03:01:43;;;;;;;37.23;18.37;;;;;;;5.48;66.71;97159.91;5093248;28;20765;-69
2021/11/11 03:04:09;;;;;;;31.63;19.03;;;;;;;5.53;66.92;97163.81;5089306;28;20193;-69
2021/11/11 03:06:38;;;;;;;28.80;18.97;;;;;;;5.63;66.51;97165.66;5093226;28;20219;-68
2021/11/11 03:09:03;;;;;;;29.00;20.13;;;;;;;5.48;66.53;97165.13;5093211;28;20318;-70
2021/11/11 03:11:30;;;;;;;33.03;18.97;;;;;;;5.47;66.84;97166.06;5093697;28;20525;-66
2021/11/11 03:13:56;;;;;;;32.10;19.87;;;;;;;5.02;67.53;97170.38;5093474;28;20194;-67
2021/11/11 03:16:21;;;;;;;34.70;20.47;;;;;;;5.14;67.83;97165.16;5093185;28;20424;-67
2021/11/11 03:18:47;;;;;;;29.03;18.50;;;;;;;5.21;67.23;97158.53;5091060;28;20769;-67
2021/11/11 03:21:13;;;;;;;31.80;19.83;;;;;;;5.36;67.17;97167.75;5074508;28;20531;-67
2021/11/11 03:23:39;;;;;;;35.03;20.53;;;;;;;5.51;66.70;97159.69;5086700;28;20435;-66
2021/11/11 03:26:04;;;;;;;34.47;21.63;;;;;;;5.54;66.44;97159.44;5093035;28;20186;-67
2021/11/11 03:28:30;;;;;;;40.10;20.93;;;;;;;5.51;66.43;97149.28;5087092;28;20182;-66
2021/11/11 03:30:55;;;;;;;28.90;18.37;;;;;;;5.56;66.38;97147.13;5090501;28;20243;-68
2021/11/11 03:33:22;;;;;;;34.20;19.67;;;;;;;5.58;65.64;97150.44;5092852;28;20188;-66
2021/11/11 03:35:47;;;;;;;31.53;18.93;;;;;;;5.62;65.69;97146.66;5093015;28;20197;-68
2021/11/11 03:38:13;;;;;;;30.50;18.80;;;;;;;5.66;66.30;97148.06;5093022;28;20416;-69
2021/11/11 03:40:42;;;;;;;39.27;21.10;;;;;;;5.74;66.35;97150.03;5092151;28;20212;-70
2021/11/11 03:43:09;;;;;;;44.27;19.47;;;;;;;5.66;66.05;97153.28;5091646;28;20185;-67
2021/11/11 03:45:35;;;;;;;31.10;19.90;;;;;;;5.52;66.07;97153.53;5092816;28;20420;-68
2021/11/11 03:48:00;;;;;;;36.73;20.20;;;;;;;5.42;66.34;97155.22;5088813;28;20908;-66
2021/11/11 03:50:26;;;;;;;33.67;21.23;;;;;;;5.43;66.39;97149.03;5083566;28;20481;-67
2021/11/11 03:52:54;;;;;;;34.47;20.03;;;;;;;5.50;66.49;97161.44;5088969;28;20649;-68
2021/11/11 03:55:22;;;;;;;34.20;18.90;;;;;;;5.59;65.64;97159.88;5075420;28;20186;-67
2021/11/11 03:57:48;;;;;;;28.07;19.00;;;;;;;5.61;65.97;97160.59;5092326;28;20526;-69
2021/11/11 04:00:16;;;;;;;30.17;19.40;;;;;;;5.62;65.41;97149.25;5091940;28;20931;-71
2021/11/11 04:02:42;;;;;;;37.70;20.30;;;;;;;5.65;65.60;97156.81;5084173;28;20293;-67
2021/11/11 04:05:08;;;;;;;33.63;19.20;;;;;;;5.69;65.95;97158.19;5087242;28;20463;-68
2021/11/11 04:07:34;;;;;;;31.90;20.50;;;;;;;5.74;66.29;97154.41;5092722;28;20514;-65
2021/11/11 04:10:00;;;;;;;35.87;21.80;;;;;;;5.81;66.05;97163.38;5093128;28;20448;-67
2021/11/11 04:12:25;;;;;;;36.83;21.47;;;;;;;5.84;66.14;97161.38;5082893;28;20189;-69
2021/11/11 04:14:51;;;;;;;33.43;20.03;;;;;;;5.54;66.40;97159.44;5092741;28;20185;-69
2021/11/11 04:17:17;;;;;;;32.87;19.80;;;;;;;5.74;66.68;97162.22;5091335;28;20191;-67
2021/11/11 04:19:42;;;;;;;38.17;22.37;;;;;;;5.80;66.79;97164.31;5082229;28;20206;-71
2021/11/11 04:22:08;;;;;;;31.47;20.50;;;;;;;5.87;66.34;97169.84;5086814;28;20267;-68
2021/11/11 04:24:34;;;;;;;31.80;19.93;;;;;;;5.78;66.27;97166.25;5095206;28;20557;-67
2021/11/11 04:27:07;;;;;;;39.67;23.17;;;;;;;5.83;66.15;97158.88;5081386;28;20262;-69
2021/11/11 04:29:37;;;;;;;58.53;31.20;;;;;;;5.87;65.96;97155.09;5071922;28;20206;-68
2021/11/11 04:32:07;;;;;;;76.83;36.10;;;;;;;5.89;65.73;97165.34;5082580;28;20452;-68
2021/11/11 04:34:34;;;;;;;58.87;29.00;;;;;;;5.54;66.42;97157.66;5092476;28;20419;-67
2021/11/11 05:01:22;;;;;;;35.17;20.63;;;;;;;5.95;65.99;97177.88;5071472;28;20959;-67
2021/11/11 05:03:48;;;;;;;43.13;20.40;;;;;;;5.82;65.64;97183.22;5071094;28;20413;-68
2021/11/11 05:06:15;;;;;;;33.10;19.70;;;;;;;5.90;66.42;97188.66;5061722;28;20767;-69
2021/11/11 05:08:41;;;;;;;41.03;22.00;;;;;;;5.68;66.04;97189.53;5066191;28;20935;-67
2021/11/11 05:11:07;;;;;;;36.23;21.10;;;;;;;5.57;67.14;97185.19;5070792;28;20452;-66
2021/11/11 05:13:33;;;;;;;34.87;21.57;;;;;;;5.71;66.49;97186.69;5068744;28;20193;-67
2021/11/11 05:15:58;;;;;;;34.83;20.77;;;;;;;5.81;66.45;97191.97;5070876;28;20194;-70
2021/11/11 05:18:24;;;;;;;38.70;20.40;;;;;;;5.82;66.23;97189.28;5075881;28;20452;-66
2021/11/11 05:20:50;;;;;;;41.57;22.30;;;;;;;5.78;66.18;97187.03;5073736;28;20656;-68
2021/11/11 05:23:16;;;;;;;35.47;21.00;;;;;;;5.79;65.58;97189.50;5077414;28;20197;-67
2021/11/11 05:25:43;;;;;;;37.07;21.90;;;;;;;5.83;65.76;97184.88;5079286;28;20429;-68
2021/11/11 05:28:08;;;;;;;34.50;20.30;;;;;;;5.77;65.66;97180.19;5068663;28;20443;-69
2021/11/11 05:30:34;;;;;;;35.10;19.67;;;;;;;5.33;66.45;97183.56;5069375;28;20764;-70
2021/11/11 05:33:00;;;;;;;35.63;22.33;;;;;;;5.56;66.43;97178.31;5077053;28;20208;-66
2021/11/11 05:35:26;;;;;;;40.17;23.03;;;;;;;5.42;68.24;97181.22;5070723;28;20436;-69
2021/11/11 05:37:53;;;;;;;40.90;22.73;;;;;;;5.21;69.49;97184.53;5064168;28;20190;-70
2021/11/11 05:40:19;;;;;;;42.80;23.33;;;;;;;5.12;70.15;97185.25;5070643;28;20441;-68
2021/11/11 05:42:45;;;;;;;35.17;22.67;;;;;;;5.38;69.56;97181.44;5070765;28;20505;-67
2021/11/11 05:45:12;;;;;;;39.97;23.83;;;;;;;5.61;69.14;97176.19;5077746;28;20511;-68
2021/11/11 05:47:38;;;;;;;35.90;23.73;;;;;;;5.54;69.75;97177.66;5070842;28;20425;-68
2021/11/11 05:50:05;;;;;;;41.17;24.60;;;;;;;5.62;69.29;97169.22;5069961;28;20464;-68
2021/11/11 05:52:30;;;;;;;46.60;24.13;;;;;;;5.60;69.30;97165.94;5074084;28;20432;-68
2021/11/11 05:54:56;;;;;;;47.80;23.73;;;;;;;5.69;68.99;97168.59;5075002;28;20424;-67
2021/11/11 05:57:22;;;;;;;44.03;24.47;;;;;;;5.77;68.83;97168.00;5076309;28;20193;-67
2021/11/11 05:59:47;;;;;;;42.77;23.50;;;;;;;5.93;68.73;97166.78;5072950;28;20440;-67
2021/11/11 06:02:14;;;;;;;35.67;22.40;;;;;;;6.04;68.29;97165.94;5079712;28;20210;-68
2021/11/11 06:04:40;;;;;;;38.97;22.57;;;;;;;6.09;67.84;97169.81;5073511;28;20178;-67
2021/11/11 06:07:06;;;;;;;40.17;23.00;;;;;;;6.12;67.82;97164.34;5076752;28;20490;-70
2021/11/11 06:09:32;;;;;;;37.40;23.03;;;;;;;6.15;67.62;97168.50;5074845;28;20452;-68
2021/11/11 06:11:57;;;;;;;45.53;21.43;;;;;;;6.17;67.51;97163.16;5087075;28;20458;-68
2021/11/11 06:14:24;;;;;;;39.53;24.60;;;;;;;6.14;67.42;97167.66;5087215;28;20182;-67
2021/11/11 06:16:49;;;;;;;40.70;22.20;;;;;;;6.20;67.31;97179.34;5074289;28;20254;-68
2021/11/11 06:19:16;;;;;;;34.00;20.67;;;;;;;6.24;67.50;97175.53;5079118;28;20508;-69
2021/11/11 06:21:42;;;;;;;40.17;23.70;;;;;;;6.24;67.16;97185.94;5076390;28;20202;-69
2021/11/11 06:24:07;;;;;;;44.13;23.00;;;;;;;5.87;67.45;97185.47;5078294;28;20941;-67
2021/11/11 06:26:33;;;;;;;40.23;24.70;;;;;;;5.92;67.88;97194.53;5070605;28;20271;-68
2021/11/11 06:29:00;;;;;;;39.30;23.20;;;;;;;6.09;68.18;97200.19;5076638;28;20189;-68
2021/11/11 06:31:25;;;;;;;38.17;23.40;;;;;;;6.21;67.44;97204.41;5070358;28;20204;-67
2021/11/11 06:33:51;;;;;;;37.70;22.97;;;;;;;6.29;67.16;97209.84;5086930;28;20915;-67
2021/11/11 06:36:17;;;;;;;42.70;23.03;;;;;;;6.37;67.27;97214.41;5069048;28;20444;-69
2021/11/11 06:38:43;;;;;;;34.97;20.73;;;;;;;6.39;66.98;97209.06;5052447;28;20229;-68
2021/11/11 06:41:08;;;;;;;35.23;21.40;;;;;;;6.42;66.45;97214.84;5072963;28;20225;-66
2021/11/11 06:43:34;;;;;;;39.07;22.10;;;;;;;6.42;66.17;97216.66;5053489;28;20186;-68
2021/11/11 06:46:00;;;;;;;34.03;21.07;;;;;;;6.39;66.09;97199.47;5078408;28;20194;-70
2021/11/11 06:48:26;;;;;;;33.10;19.20;;;;;;;6.38;65.81;97210.84;5086453;28;20188;-68
2021/11/11 06:50:52;;;;;;;35.20;20.90;;;;;;;6.35;66.55;97202.47;5093615;28;20201;-70
2021/11/11 06:53:18;;;;;;;35.10;20.90;;;;;;;6.37;66.12;97203.97;5090968;28;20436;-69
2021/11/11 06:55:44;;;;;;;35.97;21.30;;;;;;;6.32;65.58;97205.31;5074166;28;20431;-68
2021/11/11 06:58:13;;;;;;;33.63;21.87;;;;;;;6.22;66.15;97210.47;5093845;28;20934;-69
2021/11/11 07:00:39;;;;;;;34.43;21.70;;;;;;;6.34;65.99;97213.81;5094003;28;20483;-69
2021/11/11 07:03:04;;;;;;;38.53;21.20;;;;;;;6.43;66.01;97203.50;5094047;28;20419;-67
2021/11/11 07:05:31;;;;;;;36.70;21.63;;;;;;;6.49;65.70;97202.16;5085372;28;20417;-68
2021/11/11 07:07:58;;;;;;;36.97;20.90;;;;;;;6.53;65.68;97200.13;5089897;28;20267;-68
2021/11/11 07:10:24;;;;;;;33.40;21.10;;;;;;;6.59;65.77;97197.03;5094003;28;20950;-67
2021/11/11 07:12:50;;;;;;;41.97;22.23;;;;;;;6.66;65.75;97197.34;5094115;28;20416;-67
2021/11/11 07:15:17;;;;;;;39.70;21.90;;;;;;;6.74;65.53;97194.91;5089899;28;20429;-66
2021/11/11 07:17:43;;;;;;;34.73;21.57;;;;;;;6.79;65.29;97197.97;5076133;28;20434;-66
2021/11/11 07:20:13;;;;;;;38.77;21.10;;;;;;;6.82;65.01;97191.66;5093218;28;20478;-65
2021/11/11 07:22:43;;;;;;;33.70;20.90;;;;;;;6.80;65.45;97199.63;5085892;28;20454;-69
2021/11/11 07:25:09;;;;;;;35.13;21.67;;;;;;;6.77;64.80;97205.09;5093051;28;20500;-66
2021/11/11 07:27:35;;;;;;;31.40;21.50;;;;;;;6.73;64.96;97208.88;5091760;28;20423;-67
2021/11/11 07:30:06;;;;;;;43.63;21.77;;;;;;;6.87;64.77;97215.53;5093357;28;20489;-67
2021/11/11 07:32:32;;;;;;;31.20;20.43;;;;;;;6.97;64.51;97210.38;5093306;28;20427;-69
2021/11/11 07:34:58;;;;;;;38.63;21.37;;;;;;;6.95;64.48;97210.53;5093791;28;20484;-70
2021/11/11 07:37:24;;;;;;;38.57;21.87;;;;;;;6.67;64.28;97222.44;5086929;28;20441;-67
2021/11/11 07:39:51;;;;;;;33.13;20.33;;;;;;;6.87;63.66;97215.53;5090043;28;20209;-68
2021/11/11 07:42:17;;;;;;;32.20;20.50;;;;;;;6.59;63.88;97221.28;5092524;28;20237;-70
2021/11/11 07:44:43;;;;;;;37.43;22.00;;;;;;;6.37;64.92;97229.19;5084933;28;20919;-68
2021/11/11 07:47:09;;;;;;;33.83;21.23;;;;;;;6.39;64.95;97229.91;5078654;28;20427;-66
2021/11/11 07:49:34;;;;;;;39.73;22.70;;;;;;;6.13;65.64;97228.44;5088522;28;20251;-66
2021/11/11 07:52:00;;;;;;;31.37;20.43;;;;;;;6.08;67.17;97240.19;5091754;28;20507;-69
2021/11/11 07:54:25;;;;;;;35.93;22.73;;;;;;;6.40;66.12;97240.19;5091920;28;20259;-69
2021/11/11 07:56:51;;;;;;;31.90;20.97;;;;;;;6.72;65.50;97244.53;5092725;28;20180;-69
2021/11/11 07:59:17;;;;;;;40.33;21.70;;;;;;;6.47;66.07;97248.31;5092704;28;20292;-66
2021/11/11 08:01:42;;;;;;;35.37;22.50;;;;;;;6.64;66.12;97253.94;5092408;28;20200;-67
2021/11/11 08:04:08;;;;;;;47.43;22.43;;;;;;;7.04;65.24;97254.03;5087606;28;20182;-65
2021/11/11 08:06:33;;;;;;;33.10;21.33;;;;;;;7.26;64.69;97264.44;5092425;28;20264;-69
2021/11/11 08:08:59;;;;;;;37.90;21.40;;;;;;;7.38;63.98;97253.78;5092309;28;20181;-68
2021/11/11 08:11:25;;;;;;;35.27;21.60;;;;;;;7.50;63.66;97253.69;5083519;28;20596;-67
2021/11/11 08:13:50;;;;;;;36.63;22.43;;;;;;;7.53;63.49;97254.28;5092237;28;20652;-68
2021/11/11 08:16:16;;;;;;;37.87;23.03;;;;;;;7.18;64.40;97271.13;5088386;28;20189;-69
2021/11/11 08:18:42;;;;;;;31.00;20.50;;;;;;;7.16;64.53;97275.66;5084464;28;20173;-67
2021/11/11 08:21:08;;;;;;;34.73;21.63;;;;;;;7.26;64.65;97275.69;5072400;28;20664;-67
2021/11/11 08:23:35;;;;;;;38.43;22.70;;;;;;;7.04;65.49;97268.88;5086385;28;20552;-67
2021/11/11 08:26:04;;;;;;;36.17;21.53;;;;;;;6.79;67.32;97260.50;5092658;28;20209;-66
2021/11/11 08:28:30;;;;;;;37.13;21.23;;;;;;;6.42;68.56;97263.50;5092680;28;20423;-68
2021/11/11 08:30:56;;;;;;;35.07;20.83;;;;;;;6.44;67.99;97261.59;5092354;28;20431;-71
2021/11/11 08:33:21;;;;;;;39.10;20.57;;;;;;;6.18;69.17;97258.50;5099285;28;20439;-69
2021/11/11 08:35:47;;;;;;;36.70;22.50;;;;;;;6.39;68.56;97266.34;5108150;28;20200;-67
2021/11/11 08:38:13;;;;;;;35.70;21.07;;;;;;;6.46;68.23;97275.31;5095922;28;20239;-66
2021/11/11 08:40:39;;;;;;;33.30;21.30;;;;;;;6.61;67.97;97266.25;5069157;28;20199;-67
2021/11/11 08:43:06;;;;;;;36.47;22.60;;;;;;;6.89;67.78;97258.78;5089196;28;20321;-68
2021/11/11 08:45:32;;;;;;;39.30;23.57;;;;;;;6.80;66.81;97261.31;5092461;28;20473;-70
2021/11/11 08:47:58;;;;;;;56.90;28.37;;;;;;;7.04;66.37;97268.88;5067141;28;20185;-68
2021/11/11 08:50:28;;;;;;;60.77;27.20;;;;;;;7.30;64.94;97266.66;5085811;28;20452;-69
2021/11/11 08:52:54;;;;;;;87.43;32.47;;;;;;;7.08;66.08;97267.63;5088776;28;20949;-68
2021/11/11 08:55:27;;;;;;;102.40;33.90;;;;;;;7.00;66.33;97270.06;5091072;28;20447;-68
2021/11/11 08:57:53;;;;;;;77.53;28.10;;;;;;;7.30;65.89;97276.28;5091088;28;20424;-69
2021/11/11 09:00:22;;;;;;;37.93;22.13;;;;;;;6.87;66.78;97270.25;5094324;28;20783;-69
2021/11/11 09:02:50;;;;;;;47.40;24.87;;;;;;;7.10;67.16;97273.56;5089686;28;20459;-69
2021/11/11 09:05:17;;;;;;;57.40;25.40;;;;;;;6.96;66.90;97284.28;5076328;28;20578;-66
2021/11/11 09:07:43;;;;;;;37.00;21.37;;;;;;;7.12;67.21;97278.66;5096149;28;20428;-66
2021/11/11 09:10:12;;;;;;;55.97;24.50;;;;;;;7.11;66.72;97288.25;5098267;28;20471;-66
2021/11/11 09:12:38;;;;;;;88.60;33.60;;;;;;;7.53;65.79;97269.94;5097172;28;20416;-68
2021/11/11 09:15:06;;;;;;;85.03;31.90;;;;;;;7.34;65.79;97270.66;5083070;28;20515;-68
2021/11/11 09:17:32;;;;;;;52.97;24.43;;;;;;;7.65;66.24;97262.00;5078240;28;20770;-71
2021/11/11 09:19:58;;;;;;;38.13;21.70;;;;;;;7.63;65.21;97263.91;5090288;28;20450;-71
2021/11/11 09:22:24;;;;;;;32.93;20.97;;;;;;;8.08;65.17;97273.09;5083380;28;20206;-70
2021/11/11 09:24:50;;;;;;;29.33;20.27;;;;;;;8.03;64.85;97276.09;5082921;28;20450;-68
2021/11/11 09:27:15;;;;;;;28.97;19.83;;;;;;;8.26;64.12;97270.63;5091605;28;20185;-66
2021/11/11 09:29:41;;;;;;;35.70;20.27;;;;;;;8.67;62.91;97276.59;5092179;28;20443;-67
2021/11/11 09:32:07;;;;;;;29.17;19.20;;;;;;;8.89;62.65;97283.28;5090733;28;20177;-67
2021/11/11 09:34:33;;;;;;;34.43;20.90;;;;;;;9.26;61.14;97283.53;5083235;28;20420;-69
2021/11/11 09:36:58;;;;;;;35.63;21.37;;;;;;;9.70;60.27;97286.38;5090509;28;20201;-67
2021/11/11 09:39:24;;;;;;;29.23;20.60;;;;;;;9.64;59.36;97297.44;5089314;28;20201;-69
2021/11/11 09:41:52;;;;;;;30.60;20.43;;;;;;;9.82;58.27;97302.72;5090532;28;20212;-68
2021/11/11 09:44:19;;;;;;;31.07;21.03;;;;;;;9.88;57.98;97304.75;5090656;28;20427;-67
2021/11/11 09:46:45;;;;;;;49.27;22.40;;;;;;;9.91;58.01;97299.22;5078860;28;20532;-67
2021/11/11 09:49:11;;;;;;;30.87;21.67;;;;;;;10.06;57.46;97291.69;5088995;28;20412;-67
2021/11/11 09:51:40;;;;;;;41.43;24.43;;;;;;;10.09;56.36;97287.97;5090993;28;20560;-68
2021/11/11 09:59:23;;;;;;;31.43;20.27;;;;;;;10.28;56.90;97289.63;5075785;28;20439;-67
2021/11/11 10:01:50;;;;;;;34.13;21.10;;;;;;;10.42;57.06;97293.59;5090568;28;20470;-67
2021/11/11 10:04:16;;;;;;;30.13;21.10;;;;;;;10.22;56.60;97296.28;5087995;28;20423;-66
2021/11/11 10:06:42;;;;;;;36.00;21.70;;;;;;;10.33;57.35;97297.06;5090785;28;20428;-68
2021/11/11 10:09:38;;;;;;;31.83;22.07;;;;;;;10.78;56.26;97301.44;5091034;28;20893;-67
2021/11/11 10:12:06;;;;;;;39.87;21.40;;;;;;;10.84;55.61;97300.00;5084164;28;20198;-69
2021/11/11 10:14:34;;;;;;;31.00;19.87;;;;;;;10.54;56.39;97302.88;5094360;28;20434;-67
2021/11/11 10:17:07;;;;;;;40.20;21.37;;;;;;;10.95;55.46;97309.44;5080692;28;20787;-68
2021/11/11 10:19:37;;;;;;;30.97;19.97;;;;;;;10.63;55.91;97305.56;5067935;28;20607;-68
2021/11/11 10:22:23;;;;;;;32.73;20.90;;;;;;;10.95;55.43;97312.88;5087869;28;21160;-67
2021/11/11 10:25:03;;;;;;;30.37;19.97;;;;;;;10.97;55.35;97305.69;5094982;28;20419;-64
2021/11/11 10:27:33;;;;;;;36.40;21.50;;;;;;;10.72;55.63;97296.78;5088572;28;20441;-66
2021/11/11 10:30:26;;;;;;;28.87;19.60;;;;;;;10.90;54.95;97283.66;5096822;28;20444;-66
2021/11/11 10:32:58;;;;;;;30.73;21.33;;;;;;;10.66;55.51;97292.16;5092448;28;20451;-71
2021/11/11 10:35:28;;;;;;;31.03;21.43;;;;;;;10.88;55.58;97296.91;5094372;28;20439;-67
2021/11/11 10:38:03;;;;;;;34.47;21.80;;;;;;;11.04;54.88;97301.47;5094953;28;20964;-67
2021/11/11 10:40:32;;;;;;;34.10;21.53;;;;;;;11.08;54.97;97296.75;5095203;28;20451;-67
2021/11/11 10:43:00;;;;;;;31.60;20.70;;;;;;;11.19;54.78;97293.03;5094065;28;20530;-67
2021/11/11 10:45:28;;;;;;;35.83;22.10;;;;;;;11.41;54.72;97296.94;5090849;28;20454;-67
2021/11/11 10:47:55;;;;;;;32.70;20.93;;;;;;;11.66;53.62;97292.63;5084026;28;20477;-66
2021/11/11 10:50:25;;;;;;;29.03;21.00;;;;;;;11.72;53.81;97299.06;5093647;28;20443;-68
2021/11/11 10:53:00;;;;;;;33.53;22.00;;;;;;;11.77;53.28;97285.50;5076181;28;20486;-68
2021/11/11 10:55:30;;;;;;;29.03;21.10;;;;;;;11.26;54.77;97282.75;5093234;28;20423;-67
2021/11/11 10:57:58;;;;;;;32.30;20.60;;;;;;;11.19;54.49;97280.75;5094255;28;20434;-67
2021/11/11 11:00:41;;;;;;;32.67;21.43;;;;;;;11.66;54.31;97281.31;5095047;28;20451;-68
2021/11/11 11:03:11;;;;;;;31.20;22.00;;;;;;;11.32;54.87;97279.53;5097254;28;20512;-69
2021/11/11 11:05:36;;;;;;;33.50;21.83;;;;;;;11.86;53.74;97268.78;5093980;28;20442;-70
2021/11/11 11:08:10;;;;;;;41.53;21.60;;;;;;;11.90;53.02;97279.78;5087642;28;20857;-70
2021/11/11 11:10:38;;;;;;;36.30;22.27;;;;;;;12.08;53.17;97275.28;5094422;28;20205;-70
2021/11/11 11:13:10;;;;;;;33.27;22.47;;;;;;;12.42;52.46;97265.63;5073062;28;20499;-69
2021/11/11 11:15:46;;;;;;;29.00;20.93;;;;;;;12.60;52.28;97258.44;5082914;28;20427;-65
2021/11/11 11:18:13;;;;;;;37.70;22.70;;;;;;;12.77;51.05;97250.56;5080102;28;20434;-68
2021/11/11 11:20:39;;;;;;;32.60;22.03;;;;;;;12.81;51.09;97256.31;5091608;28;20485;-68
2021/11/11 11:23:25;;;;;;;38.27;25.00;;;;;;;12.74;51.79;97256.94;5086474;28;20542;-71
2021/11/11 11:25:54;;;;;;;36.77;21.80;;;;;;;12.68;51.82;97255.00;5093305;28;20182;-68
2021/11/11 11:28:34;;;;;;;33.23;21.47;;;;;;;12.62;51.64;97254.81;5092067;28;20420;-69
2021/11/11 11:31:02;;;;;;;30.47;20.63;;;;;;;12.83;51.12;97255.16;5093308;28;20439;-67
2021/11/11 11:33:38;;;;;;;32.27;21.17;;;;;;;13.26;50.68;97264.63;5093420;28;20427;-70
2021/11/11 11:36:04;;;;;;;31.07;21.90;;;;;;;13.23;50.51;97262.34;5093632;28;20543;-70
2021/11/11 11:38:31;;;;;;;31.83;19.80;;;;;;;13.20;50.42;97260.88;5092539;28;20439;-68
2021/11/11 11:40:57;;;;;;;36.40;21.70;;;;;;;13.10;49.99;97261.03;5093465;28;20443;-68
2021/11/11 11:43:30;;;;;;;28.30;21.53;;;;;;;13.20;49.91;97256.41;5075235;28;20505;-68
2021/11/11 11:46:16;;;;;;;31.20;21.90;;;;;;;13.24;49.93;97246.34;5092279;28;20424;-69
2021/11/11 11:48:44;;;;;;;32.27;22.63;;;;;;;13.13;50.02;97244.09;5086393;28;20426;-67
2021/11/11 11:51:11;;;;;;;37.47;22.57;;;;;;;12.93;50.71;97252.34;5079899;28;20604;-66
2021/11/11 11:53:44;;;;;;;34.70;22.33;;;;;;;12.90;50.67;97252.66;5092431;28;20424;-68